Watts, OK (74964)

3:59 PM CDT on August 28, 2015 (GMT -0500)
Lake Forrest Heights | | Change Station
CLOSE
Current Station
Personal Weather Station
Location: Siloam Springs, AR
Elevation: 1148 ft
Nearby Weather Stations

Elev 1148 ft 36.22 °N, 94.54 °W | Updated 14 minutes ago

Partly Cloudy
Partly Cloudy
82.2 °F
Feels Like 87 °F
N
0.0
Wind Variable Wind from South
Gusts 3.1 mph

Today
High -- | Low -- °F
--% Chance of Precip.
Yesterday
High -- | Low -- °F
Precip. -- in
6:47 AM 7:52 PM
Waxing Gibbous, 99% visible
Pressure 29.99 in
Visibility 10.0 miles
Clouds Clear
Heat Index 87 °F
Dew Point 71 °F
Humidity 69%
Rainfall 0.00 in
Snow Depth Not available.
UV 6 out of 12
Pollen 9.40 out of 12
Air Quality Not available.
Flu Activity Not available.
METAR KSLG 282055Z AUTO 17009KT 10SM CLR 28/18 A2999 RMK AO1 57020
Pressure 29.99 in
Visibility 10.0 miles
Clouds Clear
Heat Index 87 °F
Dew Point 71 °F
Humidity 69%
Rainfall 0.00 in
Snow Depth Not available.
UV 6 out of 12
Pollen 9.40 out of 12
Air Quality Not available.
Flu Activity Not available.
METAR KSLG 282055Z AUTO 17009KT 10SM CLR 28/18 A2999 RMK AO1 57020

10-Day Weather Forecast

×

Almanac

Astronomy

Aug. 28, 2015 Rise Set
Actual Time
Civil Twilight
Nautical Twilight
Astronomical Twilight
Moon
Length of Visible Light
Length of Day
Tomorrow will be .
, % of the Moon is Illuminated

Today's Extremes

State Highs State Lows

Community

WunderPhotos

Upload Photos

1,850,481 photos uploaded!

WunderBlogs® & News

Nearby

Air Quality

  Air Quality AQ Index Pollutant
Not available.

Snow Depth

Station Depth Elevation

Earthquake Activity

City Distance Mag. Time & Date
Minimum magnitude displayed is 2.5.

Coastal Water Temperatures

Place Temperature

Stations

Nearby Weather Stations

Station Location Temp. Windchill Dew Point Humidity Wind Precip. Elev Updated Type